Terminal Aerodrome Forecast
Issued by NWS

Home | Current Version | Previous Version | Text Only | Print | Product List | Glossary On
Versions: 1 2 3 4 5 6 7 8 9 10 11 12 13 14 15
000
FTUS41 KBTV 262327
TAFMPV
TAF
KMPV 262327Z 2700/2724 23006KT P6SM SCT060 BKN150
     FM270500 19007KT P6SM VCSH SCT030 OVC040
     FM270800 19008KT 5SM -SHRA BR SCT015 OVC025
     FM271500 23007KT 6SM -SHRA BR BKN035
     FM272000 27008KT P6SM VCSH BKN045=

USA.gov is the U.S. government's official web portal to all federal, state and local government web resources and services.